sensor_id;sensor_type;location;lat;lon;timestamp;P1;durP1;ratioP1;P2;durP2;ratioP2
48040;SDS011;33815;48.386;11.738;2023-11-21T00:02:24;9.43;;;3.28;;
48040;SDS011;33815;48.386;11.738;2023-11-21T00:04:50;9.30;;;3.67;;
48040;SDS011;33815;48.386;11.738;2023-11-21T00:07:15;6.03;;;3.10;;
48040;SDS011;33815;48.386;11.738;2023-11-21T00:09:40;6.53;;;3.03;;
48040;SDS011;33815;48.386;11.738;2023-11-21T00:12:06;12.02;;;3.47;;
48040;SDS011;33815;48.386;11.738;2023-11-21T00:14:35;10.80;;;3.28;;
48040;SDS011;33815;48.386;11.738;2023-11-21T00:17:03;6.70;;;3.58;;
48040;SDS011;33815;48.386;11.738;2023-11-21T00:19:29;6.50;;;2.72;;
48040;SDS011;33815;48.386;11.738;2023-11-21T00:21:54;9.13;;;2.92;;
48040;SDS011;33815;48.386;11.738;2023-11-21T00:24:19;6.32;;;2.53;;
48040;SDS011;33815;48.386;11.738;2023-11-21T00:26:45;6.38;;;2.42;;
48040;SDS011;33815;48.386;11.738;2023-11-21T00:29:10;9.43;;;2.80;;
48040;SDS011;33815;48.386;11.738;2023-11-21T00:31:35;3.47;;;2.33;;
48040;SDS011;33815;48.386;11.738;2023-11-21T00:34:04;8.13;;;3.08;;
48040;SDS011;33815;48.386;11.738;2023-11-21T00:36:30;5.13;;;3.13;;
48040;SDS011;33815;48.386;11.738;2023-11-21T00:38:56;6.40;;;3.10;;
48040;SDS011;33815;48.386;11.738;2023-11-21T00:41:22;9.15;;;3.67;;
48040;SDS011;33815;48.386;11.738;2023-11-21T00:43:47;8.30;;;2.40;;
48040;SDS011;33815;48.386;11.738;2023-11-21T00:46:12;9.97;;;2.30;;
48040;SDS011;33815;48.386;11.738;2023-11-21T00:48:38;4.05;;;1.90;;
48040;SDS011;33815;48.386;11.738;2023-11-21T00:51:04;5.25;;;1.50;;
48040;SDS011;33815;48.386;11.738;2023-11-21T00:53:31;7.88;;;1.98;;
48040;SDS011;33815;48.386;11.738;2023-11-21T00:55:56;5.47;;;1.98;;
48040;SDS011;33815;48.386;11.738;2023-11-21T00:58:25;4.55;;;1.60;;
48040;SDS011;33815;48.386;11.738;2023-11-21T01:00:51;7.05;;;1.70;;
48040;SDS011;33815;48.386;11.738;2023-11-21T01:03:16;7.40;;;1.83;;
48040;SDS011;33815;48.386;11.738;2023-11-21T01:05:41;7.60;;;2.08;;
48040;SDS011;33815;48.386;11.738;2023-11-21T01:08:07;4.88;;;1.70;;
48040;SDS011;33815;48.386;11.738;2023-11-21T01:10:32;5.50;;;1.63;;
48040;SDS011;33815;48.386;11.738;2023-11-21T01:12:59;4.38;;;1.67;;
48040;SDS011;33815;48.386;11.738;2023-11-21T01:15:24;1.80;;;1.27;;
48040;SDS011;33815;48.386;11.738;2023-11-21T01:17:50;2.67;;;1.55;;
48040;SDS011;33815;48.386;11.738;2023-11-21T01:20:16;3.88;;;1.27;;
48040;SDS011;33815;48.386;11.738;2023-11-21T01:22:42;2.40;;;1.30;;
48040;SDS011;33815;48.386;11.738;2023-11-21T01:25:08;1.98;;;1.52;;
48040;SDS011;33815;48.386;11.738;2023-11-21T01:27:34;7.03;;;2.45;;
48040;SDS011;33815;48.386;11.738;2023-11-21T01:29:59;4.28;;;1.45;;
48040;SDS011;33815;48.386;11.738;2023-11-21T01:32:25;5.00;;;1.35;;
48040;SDS011;33815;48.386;11.738;2023-11-21T01:34:50;5.38;;;2.17;;
48040;SDS011;33815;48.386;11.738;2023-11-21T01:37:16;8.68;;;1.40;;
48040;SDS011;33815;48.386;11.738;2023-11-21T01:39:42;4.65;;;1.10;;
48040;SDS011;33815;48.386;11.738;2023-11-21T01:42:10;3.92;;;1.30;;
48040;SDS011;33815;48.386;11.738;2023-11-21T01:44:37;5.95;;;1.27;;
48040;SDS011;33815;48.386;11.738;2023-11-21T01:47:03;2.90;;;1.20;;
48040;SDS011;33815;48.386;11.738;2023-11-21T01:49:32;4.60;;;1.35;;
48040;SDS011;33815;48.386;11.738;2023-11-21T01:51:58;5.88;;;1.40;;
48040;SDS011;33815;48.386;11.738;2023-11-21T01:54:24;3.13;;;1.35;;
48040;SDS011;33815;48.386;11.738;2023-11-21T01:56:50;3.00;;;1.15;;
48040;SDS011;33815;48.386;11.738;2023-11-21T01:59:17;3.88;;;1.15;;
48040;SDS011;33815;48.386;11.738;2023-11-21T02:01:46;1.73;;;0.98;;
48040;SDS011;33815;48.386;11.738;2023-11-21T02:04:12;4.90;;;1.20;;
48040;SDS011;33815;48.386;11.738;2023-11-21T02:06:37;3.28;;;1.38;;
48040;SDS011;33815;48.386;11.738;2023-11-21T02:09:04;1.45;;;1.20;;
48040;SDS011;33815;48.386;11.738;2023-11-21T02:11:29;7.82;;;1.33;;
48040;SDS011;33815;48.386;11.738;2023-11-21T02:13:55;5.72;;;2.47;;
48040;SDS011;33815;48.386;11.738;2023-11-21T02:16:20;5.28;;;1.50;;
48040;SDS011;33815;48.386;11.738;2023-11-21T02:18:48;2.92;;;1.38;;
48040;SDS011;33815;48.386;11.738;2023-11-21T02:21:15;2.72;;;1.63;;
48040;SDS011;33815;48.386;11.738;2023-11-21T02:23:40;3.90;;;1.42;;
48040;SDS011;33815;48.386;11.738;2023-11-21T02:26:09;5.10;;;1.58;;
48040;SDS011;33815;48.386;11.738;2023-11-21T02:28:35;6.72;;;1.40;;
48040;SDS011;33815;48.386;11.738;2023-11-21T02:31:01;1.83;;;1.17;;
48040;SDS011;33815;48.386;11.738;2023-11-21T02:33:27;3.28;;;1.40;;
48040;SDS011;33815;48.386;11.738;2023-11-21T02:35:53;1.02;;;0.90;;
48040;SDS011;33815;48.386;11.738;2023-11-21T02:38:20;1.73;;;1.08;;
48040;SDS011;33815;48.386;11.738;2023-11-21T02:40:46;3.33;;;1.05;;
48040;SDS011;33815;48.386;11.738;2023-11-21T02:43:11;7.05;;;1.30;;
48040;SDS011;33815;48.386;11.738;2023-11-21T02:45:36;7.25;;;1.27;;
48040;SDS011;33815;48.386;11.738;2023-11-21T02:48:02;4.50;;;1.17;;
48040;SDS011;33815;48.386;11.738;2023-11-21T02:50:27;2.42;;;1.55;;
48040;SDS011;33815;48.386;11.738;2023-11-21T02:52:52;1.63;;;1.10;;
48040;SDS011;33815;48.386;11.738;2023-11-21T02:55:17;2.65;;;1.13;;
48040;SDS011;33815;48.386;11.738;2023-11-21T02:57:43;7.88;;;1.55;;
48040;SDS011;33815;48.386;11.738;2023-11-21T03:00:08;4.63;;;1.20;;
48040;SDS011;33815;48.386;11.738;2023-11-21T03:02:35;3.70;;;1.02;;
48040;SDS011;33815;48.386;11.738;2023-11-21T03:05:04;6.70;;;1.20;;
48040;SDS011;33815;48.386;11.738;2023-11-21T03:07:30;4.43;;;1.10;;
48040;SDS011;33815;48.386;11.738;2023-11-21T03:09:55;1.60;;;1.10;;
48040;SDS011;33815;48.386;11.738;2023-11-21T03:12:21;1.50;;;1.10;;
48040;SDS011;33815;48.386;11.738;2023-11-21T03:14:46;2.93;;;1.20;;
48040;SDS011;33815;48.386;11.738;2023-11-21T03:17:12;0.90;;;0.90;;
48040;SDS011;33815;48.386;11.738;2023-11-21T03:19:40;2.47;;;1.08;;
48040;SDS011;33815;48.386;11.738;2023-11-21T03:22:06;4.97;;;1.15;;
48040;SDS011;33815;48.386;11.738;2023-11-21T03:24:31;4.53;;;1.20;;
48040;SDS011;33815;48.386;11.738;2023-11-21T03:26:57;4.20;;;1.13;;
48040;SDS011;33815;48.386;11.738;2023-11-21T03:29:22;2.83;;;1.60;;
48040;SDS011;33815;48.386;11.738;2023-11-21T03:31:47;1.63;;;1.13;;
48040;SDS011;33815;48.386;11.738;2023-11-21T03:34:19;3.00;;;1.20;;
48040;SDS011;33815;48.386;11.738;2023-11-21T03:36:48;3.80;;;1.10;;
48040;SDS011;33815;48.386;11.738;2023-11-21T03:39:14;3.97;;;1.10;;
48040;SDS011;33815;48.386;11.738;2023-11-21T03:41:39;6.43;;;1.27;;
48040;SDS011;33815;48.386;11.738;2023-11-21T03:44:04;5.80;;;1.20;;
48040;SDS011;33815;48.386;11.738;2023-11-21T03:46:30;2.25;;;0.90;;
48040;SDS011;33815;48.386;11.738;2023-11-21T03:48:55;6.77;;;1.23;;
48040;SDS011;33815;48.386;11.738;2023-11-21T03:51:20;2.13;;;1.10;;
48040;SDS011;33815;48.386;11.738;2023-11-21T03:53:46;4.82;;;1.50;;
48040;SDS011;33815;48.386;11.738;2023-11-21T03:56:11;2.83;;;1.20;;
48040;SDS011;33815;48.386;11.738;2023-11-21T03:58:39;3.75;;;1.55;;
48040;SDS011;33815;48.386;11.738;2023-11-21T04:01:04;4.03;;;1.20;;
48040;SDS011;33815;48.386;11.738;2023-11-21T04:03:30;3.05;;;1.70;;
48040;SDS011;33815;48.386;11.738;2023-11-21T04:05:55;2.63;;;1.20;;
48040;SDS011;33815;48.386;11.738;2023-11-21T04:08:20;2.30;;;1.02;;
48040;SDS011;33815;48.386;11.738;2023-11-21T04:10:46;2.65;;;2.10;;
48040;SDS011;33815;48.386;11.738;2023-11-21T04:13:11;2.53;;;1.08;;
48040;SDS011;33815;48.386;11.738;2023-11-21T04:15:36;2.78;;;1.10;;
48040;SDS011;33815;48.386;11.738;2023-11-21T04:18:02;1.58;;;1.00;;
48040;SDS011;33815;48.386;11.738;2023-11-21T04:20:28;6.60;;;1.90;;
48040;SDS011;33815;48.386;11.738;2023-11-21T04:22:53;5.75;;;1.27;;
48040;SDS011;33815;48.386;11.738;2023-11-21T04:25:18;3.10;;;1.52;;
48040;SDS011;33815;48.386;11.738;2023-11-21T04:27:44;1.95;;;1.20;;
48040;SDS011;33815;48.386;11.738;2023-11-21T04:30:10;5.38;;;1.27;;
48040;SDS011;33815;48.386;11.738;2023-11-21T04:32:36;7.43;;;1.30;;
48040;SDS011;33815;48.386;11.738;2023-11-21T04:35:02;5.80;;;1.50;;
48040;SDS011;33815;48.386;11.738;2023-11-21T04:37:29;3.78;;;1.25;;
48040;SDS011;33815;48.386;11.738;2023-11-21T04:39:54;7.57;;;1.70;;
48040;SDS011;33815;48.386;11.738;2023-11-21T04:42:19;5.30;;;1.50;;
48040;SDS011;33815;48.386;11.738;2023-11-21T04:44:44;2.78;;;1.15;;
48040;SDS011;33815;48.386;11.738;2023-11-21T04:47:10;1.20;;;1.10;;
48040;SDS011;33815;48.386;11.738;2023-11-21T04:49:35;4.93;;;1.60;;
48040;SDS011;33815;48.386;11.738;2023-11-21T04:52:00;2.92;;;1.50;;
48040;SDS011;33815;48.386;11.738;2023-11-21T04:54:26;1.40;;;1.30;;
48040;SDS011;33815;48.386;11.738;2023-11-21T04:56:52;2.33;;;1.27;;
48040;SDS011;33815;48.386;11.738;2023-11-21T04:59:17;1.33;;;1.23;;
48040;SDS011;33815;48.386;11.738;2023-11-21T05:01:43;2.38;;;1.50;;
48040;SDS011;33815;48.386;11.738;2023-11-21T05:04:08;5.10;;;1.50;;
48040;SDS011;33815;48.386;11.738;2023-11-21T05:06:34;3.85;;;1.45;;
48040;SDS011;33815;48.386;11.738;2023-11-21T05:08:59;2.00;;;1.25;;
48040;SDS011;33815;48.386;11.738;2023-11-21T05:11:25;2.75;;;1.40;;
48040;SDS011;33815;48.386;11.738;2023-11-21T05:13:51;1.42;;;0.93;;
48040;SDS011;33815;48.386;11.738;2023-11-21T05:16:16;2.80;;;1.30;;
48040;SDS011;33815;48.386;11.738;2023-11-21T05:18:41;4.03;;;1.30;;
48040;SDS011;33815;48.386;11.738;2023-11-21T05:21:07;1.35;;;1.25;;
48040;SDS011;33815;48.386;11.738;2023-11-21T05:23:32;2.65;;;1.48;;
48040;SDS011;33815;48.386;11.738;2023-11-21T05:25:58;4.70;;;1.60;;
48040;SDS011;33815;48.386;11.738;2023-11-21T05:28:24;4.55;;;1.85;;
48040;SDS011;33815;48.386;11.738;2023-11-21T05:30:50;1.83;;;1.27;;
48040;SDS011;33815;48.386;11.738;2023-11-21T05:33:15;3.10;;;1.50;;
48040;SDS011;33815;48.386;11.738;2023-11-21T05:35:41;6.90;;;1.73;;
48040;SDS011;33815;48.386;11.738;2023-11-21T05:38:06;3.35;;;1.48;;
48040;SDS011;33815;48.386;11.738;2023-11-21T05:40:31;1.40;;;1.30;;
48040;SDS011;33815;48.386;11.738;2023-11-21T05:42:57;2.42;;;1.35;;
48040;SDS011;33815;48.386;11.738;2023-11-21T05:45:22;4.20;;;1.30;;
48040;SDS011;33815;48.386;11.738;2023-11-21T05:47:47;2.15;;;1.55;;
48040;SDS011;33815;48.386;11.738;2023-11-21T05:50:13;2.00;;;1.23;;
48040;SDS011;33815;48.386;11.738;2023-11-21T05:52:44;4.75;;;1.20;;
48040;SDS011;33815;48.386;11.738;2023-11-21T05:55:10;2.83;;;1.48;;
48040;SDS011;33815;48.386;11.738;2023-11-21T05:57:36;1.85;;;1.20;;
48040;SDS011;33815;48.386;11.738;2023-11-21T06:00:03;1.52;;;1.30;;
48040;SDS011;33815;48.386;11.738;2023-11-21T06:02:39;3.58;;;1.33;;
48040;SDS011;33815;48.386;11.738;2023-11-21T06:05:06;1.60;;;1.50;;
48040;SDS011;33815;48.386;11.738;2023-11-21T06:07:32;3.40;;;1.42;;
48040;SDS011;33815;48.386;11.738;2023-11-21T06:09:57;1.80;;;1.48;;
48040;SDS011;33815;48.386;11.738;2023-11-21T06:12:22;3.95;;;1.63;;
48040;SDS011;33815;48.386;11.738;2023-11-21T06:14:48;8.73;;;4.28;;
48040;SDS011;33815;48.386;11.738;2023-11-21T06:17:13;15.15;;;7.35;;
48040;SDS011;33815;48.386;11.738;2023-11-21T06:19:39;14.82;;;5.95;;
48040;SDS011;33815;48.386;11.738;2023-11-21T06:22:04;12.80;;;4.85;;
48040;SDS011;33815;48.386;11.738;2023-11-21T06:24:30;8.32;;;3.45;;
48040;SDS011;33815;48.386;11.738;2023-11-21T06:26:56;5.70;;;2.90;;
48040;SDS011;33815;48.386;11.738;2023-11-21T06:29:21;6.50;;;2.28;;
48040;SDS011;33815;48.386;11.738;2023-11-21T06:31:47;6.53;;;2.58;;
48040;SDS011;33815;48.386;11.738;2023-11-21T06:34:12;11.10;;;10.07;;
48040;SDS011;33815;48.386;11.738;2023-11-21T06:36:38;9.05;;;7.95;;
48040;SDS011;33815;48.386;11.738;2023-11-21T06:39:04;9.32;;;5.00;;
48040;SDS011;33815;48.386;11.738;2023-11-21T06:41:32;5.68;;;4.30;;
48040;SDS011;33815;48.386;11.738;2023-11-21T06:43:58;7.22;;;4.32;;
48040;SDS011;33815;48.386;11.738;2023-11-21T06:46:24;7.05;;;4.75;;
48040;SDS011;33815;48.386;11.738;2023-11-21T06:48:49;8.38;;;4.78;;
48040;SDS011;33815;48.386;11.738;2023-11-21T06:51:14;4.50;;;2.90;;
48040;SDS011;33815;48.386;11.738;2023-11-21T06:53:39;6.30;;;3.00;;
48040;SDS011;33815;48.386;11.738;2023-11-21T06:56:05;7.85;;;4.18;;
48040;SDS011;33815;48.386;11.738;2023-11-21T06:58:40;9.45;;;4.97;;
48040;SDS011;33815;48.386;11.738;2023-11-21T07:01:05;4.97;;;3.22;;
48040;SDS011;33815;48.386;11.738;2023-11-21T07:03:32;8.27;;;3.35;;
48040;SDS011;33815;48.386;11.738;2023-11-21T07:05:57;5.63;;;3.10;;
48040;SDS011;33815;48.386;11.738;2023-11-21T07:08:22;26.65;;;12.48;;
48040;SDS011;33815;48.386;11.738;2023-11-21T07:10:47;11.63;;;6.05;;
48040;SDS011;33815;48.386;11.738;2023-11-21T07:13:14;14.95;;;8.18;;
48040;SDS011;33815;48.386;11.738;2023-11-21T07:15:39;10.00;;;5.63;;
48040;SDS011;33815;48.386;11.738;2023-11-21T07:18:05;10.55;;;6.75;;
48040;SDS011;33815;48.386;11.738;2023-11-21T07:20:32;4.65;;;3.47;;
48040;SDS011;33815;48.386;11.738;2023-11-21T07:22:58;14.18;;;6.70;;
48040;SDS011;33815;48.386;11.738;2023-11-21T07:25:24;15.00;;;7.55;;
48040;SDS011;33815;48.386;11.738;2023-11-21T07:27:49;17.75;;;10.88;;
48040;SDS011;33815;48.386;11.738;2023-11-21T07:30:15;33.95;;;13.93;;
48040;SDS011;33815;48.386;11.738;2023-11-21T07:32:40;22.80;;;12.02;;
48040;SDS011;33815;48.386;11.738;2023-11-21T07:35:06;38.55;;;16.27;;
48040;SDS011;33815;48.386;11.738;2023-11-21T07:37:33;79.40;;;30.90;;
48040;SDS011;33815;48.386;11.738;2023-11-21T07:39:58;27.67;;;11.63;;
48040;SDS011;33815;48.386;11.738;2023-11-21T07:42:23;10.73;;;5.95;;
48040;SDS011;33815;48.386;11.738;2023-11-21T07:44:51;14.38;;;7.15;;
48040;SDS011;33815;48.386;11.738;2023-11-21T07:47:17;8.98;;;3.65;;
48040;SDS011;33815;48.386;11.738;2023-11-21T07:49:42;5.10;;;3.40;;
48040;SDS011;33815;48.386;11.738;2023-11-21T07:52:09;3.10;;;2.17;;
48040;SDS011;33815;48.386;11.738;2023-11-21T07:54:34;1.70;;;1.20;;
48040;SDS011;33815;48.386;11.738;2023-11-21T07:57:00;2.17;;;1.23;;
48040;SDS011;33815;48.386;11.738;2023-11-21T07:59:26;5.00;;;1.33;;
48040;SDS011;33815;48.386;11.738;2023-11-21T08:01:51;2.72;;;1.17;;
48040;SDS011;33815;48.386;11.738;2023-11-21T08:04:16;0.95;;;0.90;;
48040;SDS011;33815;48.386;11.738;2023-11-21T08:06:42;2.15;;;0.85;;
48040;SDS011;33815;48.386;11.738;2023-11-21T08:09:07;2.72;;;1.10;;
48040;SDS011;33815;48.386;11.738;2023-11-21T08:11:33;0.93;;;0.90;;
48040;SDS011;33815;48.386;11.738;2023-11-21T08:13:59;0.90;;;0.90;;
48040;SDS011;33815;48.386;11.738;2023-11-21T08:16:24;2.17;;;1.08;;
48040;SDS011;33815;48.386;11.738;2023-11-21T08:18:50;1.45;;;0.90;;
48040;SDS011;33815;48.386;11.738;2023-11-21T08:21:16;1.17;;;0.90;;
48040;SDS011;33815;48.386;11.738;2023-11-21T08:23:41;3.08;;;0.90;;
48040;SDS011;33815;48.386;11.738;2023-11-21T08:26:06;3.33;;;0.80;;
48040;SDS011;33815;48.386;11.738;2023-11-21T08:28:31;0.70;;;0.70;;
48040;SDS011;33815;48.386;11.738;2023-11-21T08:30:57;1.10;;;1.00;;
48040;SDS011;33815;48.386;11.738;2023-11-21T08:33:22;1.90;;;0.67;;
48040;SDS011;33815;48.386;11.738;2023-11-21T08:35:48;3.13;;;0.93;;
48040;SDS011;33815;48.386;11.738;2023-11-21T08:38:13;2.22;;;1.20;;
48040;SDS011;33815;48.386;11.738;2023-11-21T08:40:39;0.70;;;0.70;;
48040;SDS011;33815;48.386;11.738;2023-11-21T08:43:04;1.55;;;0.80;;
48040;SDS011;33815;48.386;11.738;2023-11-21T08:45:30;0.82;;;0.82;;
48040;SDS011;33815;48.386;11.738;2023-11-21T08:47:55;2.80;;;0.85;;
48040;SDS011;33815;48.386;11.738;2023-11-21T08:50:21;1.95;;;0.85;;
48040;SDS011;33815;48.386;11.738;2023-11-21T08:52:47;0.90;;;0.70;;
48040;SDS011;33815;48.386;11.738;2023-11-21T08:55:13;1.10;;;0.80;;
48040;SDS011;33815;48.386;11.738;2023-11-21T08:57:39;2.47;;;1.05;;
48040;SDS011;33815;48.386;11.738;2023-11-21T09:00:07;3.28;;;1.42;;
48040;SDS011;33815;48.386;11.738;2023-11-21T09:02:37;2.10;;;0.82;;
48040;SDS011;33815;48.386;11.738;2023-11-21T09:05:07;3.03;;;0.80;;
48040;SDS011;33815;48.386;11.738;2023-11-21T09:07:34;1.40;;;1.00;;
48040;SDS011;33815;48.386;11.738;2023-11-21T09:09:59;0.80;;;0.77;;
48040;SDS011;33815;48.386;11.738;2023-11-21T09:12:25;1.17;;;0.90;;
48040;SDS011;33815;48.386;11.738;2023-11-21T09:14:51;2.22;;;0.70;;
48040;SDS011;33815;48.386;11.738;2023-11-21T09:17:16;3.40;;;0.80;;
48040;SDS011;33815;48.386;11.738;2023-11-21T09:19:42;1.85;;;0.88;;
48040;SDS011;33815;48.386;11.738;2023-11-21T09:22:10;2.35;;;0.70;;
48040;SDS011;33815;48.386;11.738;2023-11-21T09:24:35;1.27;;;0.90;;
48040;SDS011;33815;48.386;11.738;2023-11-21T09:27:00;2.53;;;1.07;;
48040;SDS011;33815;48.386;11.738;2023-11-21T09:29:26;2.47;;;0.88;;
48040;SDS011;33815;48.386;11.738;2023-11-21T09:31:52;2.22;;;0.95;;
48040;SDS011;33815;48.386;11.738;2023-11-21T09:34:19;0.77;;;0.70;;
48040;SDS011;33815;48.386;11.738;2023-11-21T09:36:45;1.30;;;0.80;;
48040;SDS011;33815;48.386;11.738;2023-11-21T09:39:11;6.63;;;1.00;;
48040;SDS011;33815;48.386;11.738;2023-11-21T09:41:52;3.30;;;1.30;;
48040;SDS011;33815;48.386;11.738;2023-11-21T09:44:35;0.70;;;0.70;;
48040;SDS011;33815;48.386;11.738;2023-11-21T09:47:02;3.85;;;1.05;;
48040;SDS011;33815;48.386;11.738;2023-11-21T09:49:28;1.63;;;1.15;;
48040;SDS011;33815;48.386;11.738;2023-11-21T09:51:54;1.45;;;1.20;;
48040;SDS011;33815;48.386;11.738;2023-11-21T09:54:22;1.80;;;1.00;;
48040;SDS011;33815;48.386;11.738;2023-11-21T09:56:47;1.45;;;0.93;;
48040;SDS011;33815;48.386;11.738;2023-11-21T09:59:15;2.78;;;0.93;;
48040;SDS011;33815;48.386;11.738;2023-11-21T10:01:41;1.80;;;1.10;;
48040;SDS011;33815;48.386;11.738;2023-11-21T10:04:08;1.48;;;1.00;;
48040;SDS011;33815;48.386;11.738;2023-11-21T10:06:38;1.05;;;1.00;;
48040;SDS011;33815;48.386;11.738;2023-11-21T10:09:06;3.55;;;1.00;;
48040;SDS011;33815;48.386;11.738;2023-11-21T10:11:36;1.38;;;1.13;;
48040;SDS011;33815;48.386;11.738;2023-11-21T10:14:06;1.35;;;0.90;;
48040;SDS011;33815;48.386;11.738;2023-11-21T10:16:35;0.90;;;0.90;;
48040;SDS011;33815;48.386;11.738;2023-11-21T10:19:02;3.10;;;1.20;;
48040;SDS011;33815;48.386;11.738;2023-11-21T10:21:29;3.13;;;0.93;;
48040;SDS011;33815;48.386;11.738;2023-11-21T10:23:55;3.10;;;1.10;;
48040;SDS011;33815;48.386;11.738;2023-11-21T10:26:20;2.35;;;0.95;;
48040;SDS011;33815;48.386;11.738;2023-11-21T10:28:55;4.10;;;1.83;;
48040;SDS011;33815;48.386;11.738;2023-11-21T10:31:22;3.08;;;1.20;;
48040;SDS011;33815;48.386;11.738;2023-11-21T10:33:49;4.15;;;1.58;;
48040;SDS011;33815;48.386;11.738;2023-11-21T10:36:20;2.75;;;1.20;;
48040;SDS011;33815;48.386;11.738;2023-11-21T10:38:50;2.27;;;1.37;;
48040;SDS011;33815;48.386;11.738;2023-11-21T10:41:18;2.47;;;1.40;;
48040;SDS011;33815;48.386;11.738;2023-11-21T10:43:43;0.98;;;0.98;;
48040;SDS011;33815;48.386;11.738;2023-11-21T10:46:09;6.15;;;2.22;;
48040;SDS011;33815;48.386;11.738;2023-11-21T10:48:34;4.07;;;1.25;;
48040;SDS011;33815;48.386;11.738;2023-11-21T10:51:00;3.20;;;1.40;;
48040;SDS011;33815;48.386;11.738;2023-11-21T10:53:32;0.90;;;0.90;;
48040;SDS011;33815;48.386;11.738;2023-11-21T10:56:01;1.30;;;1.00;;
48040;SDS011;33815;48.386;11.738;2023-11-21T10:58:30;1.83;;;0.93;;
48040;SDS011;33815;48.386;11.738;2023-11-21T11:00:57;0.90;;;0.85;;
48040;SDS011;33815;48.386;11.738;2023-11-21T11:03:23;1.42;;;1.33;;
48040;SDS011;33815;48.386;11.738;2023-11-21T11:05:48;1.70;;;1.00;;
48040;SDS011;33815;48.386;11.738;2023-11-21T11:08:20;2.17;;;1.70;;
48040;SDS011;33815;48.386;11.738;2023-11-21T11:10:51;2.20;;;1.20;;
48040;SDS011;33815;48.386;11.738;2023-11-21T11:13:17;1.10;;;1.00;;
48040;SDS011;33815;48.386;11.738;2023-11-21T11:15:44;3.53;;;1.17;;
48040;SDS011;33815;48.386;11.738;2023-11-21T11:18:12;4.93;;;1.30;;
48040;SDS011;33815;48.386;11.738;2023-11-21T11:20:38;1.65;;;1.05;;
48040;SDS011;33815;48.386;11.738;2023-11-21T11:25:58;1.83;;;0.80;;
48040;SDS011;33815;48.386;11.738;2023-11-21T11:28:35;1.15;;;1.08;;
48040;SDS011;33815;48.386;11.738;2023-11-21T11:34:16;2.17;;;1.30;;
48040;SDS011;33815;48.386;11.738;2023-11-21T11:36:54;2.30;;;1.30;;
48040;SDS011;33815;48.386;11.738;2023-11-21T11:39:34;3.63;;;1.17;;
48040;SDS011;33815;48.386;11.738;2023-11-21T11:42:02;1.83;;;1.10;;
48040;SDS011;33815;48.386;11.738;2023-11-21T11:52:50;1.40;;;1.13;;
48040;SDS011;33815;48.386;11.738;2023-11-21T11:55:23;1.50;;;1.00;;
48040;SDS011;33815;48.386;11.738;2023-11-21T11:57:53;1.83;;;0.95;;
48040;SDS011;33815;48.386;11.738;2023-11-21T12:00:22;3.15;;;1.00;;
48040;SDS011;33815;48.386;11.738;2023-11-21T12:03:02;1.10;;;1.00;;
48040;SDS011;33815;48.386;11.738;2023-11-21T12:05:29;1.50;;;1.10;;
48040;SDS011;33815;48.386;11.738;2023-11-21T12:08:01;2.75;;;0.80;;
48040;SDS011;33815;48.386;11.738;2023-11-21T12:10:28;3.78;;;1.33;;
48040;SDS011;33815;48.386;11.738;2023-11-21T12:12:56;3.45;;;1.00;;
48040;SDS011;33815;48.386;11.738;2023-11-21T12:15:23;1.42;;;1.33;;
48040;SDS011;33815;48.386;11.738;2023-11-21T12:17:50;1.05;;;1.02;;
48040;SDS011;33815;48.386;11.738;2023-11-21T12:20:20;2.92;;;1.40;;
48040;SDS011;33815;48.386;11.738;2023-11-21T12:22:47;2.50;;;1.27;;
48040;SDS011;33815;48.386;11.738;2023-11-21T12:25:14;5.10;;;1.25;;
48040;SDS011;33815;48.386;11.738;2023-11-21T12:27:44;3.53;;;1.50;;
48040;SDS011;33815;48.386;11.738;2023-11-21T12:30:11;4.90;;;1.63;;
48040;SDS011;33815;48.386;11.738;2023-11-21T12:32:40;4.65;;;1.25;;
48040;SDS011;33815;48.386;11.738;2023-11-21T12:35:06;0.90;;;0.90;;
48040;SDS011;33815;48.386;11.738;2023-11-21T12:37:33;5.70;;;1.35;;
48040;SDS011;33815;48.386;11.738;2023-11-21T12:39:59;2.25;;;1.60;;
48040;SDS011;33815;48.386;11.738;2023-11-21T12:42:24;1.98;;;1.40;;
48040;SDS011;33815;48.386;11.738;2023-11-21T12:45:06;2.35;;;1.20;;
48040;SDS011;33815;48.386;11.738;2023-11-21T12:47:56;2.45;;;2.22;;
48040;SDS011;33815;48.386;11.738;2023-11-21T12:50:24;2.35;;;1.60;;
48040;SDS011;33815;48.386;11.738;2023-11-21T12:52:54;2.70;;;1.77;;
48040;SDS011;33815;48.386;11.738;2023-11-21T12:55:23;2.03;;;1.40;;
48040;SDS011;33815;48.386;11.738;2023-11-21T12:57:52;1.90;;;1.20;;
48040;SDS011;33815;48.386;11.738;2023-11-21T13:00:28;2.53;;;1.70;;
48040;SDS011;33815;48.386;11.738;2023-11-21T13:02:58;2.67;;;1.85;;
48040;SDS011;33815;48.386;11.738;2023-11-21T13:05:28;2.47;;;1.60;;
48040;SDS011;33815;48.386;11.738;2023-11-21T13:08:03;5.43;;;1.70;;
48040;SDS011;33815;48.386;11.738;2023-11-21T13:10:33;2.60;;;1.80;;
48040;SDS011;33815;48.386;11.738;2023-11-21T13:13:01;3.15;;;1.90;;
48040;SDS011;33815;48.386;11.738;2023-11-21T13:15:30;5.90;;;2.28;;
48040;SDS011;33815;48.386;11.738;2023-11-21T13:18:00;3.83;;;2.40;;
48040;SDS011;33815;48.386;11.738;2023-11-21T13:20:25;3.70;;;2.30;;
48040;SDS011;33815;48.386;11.738;2023-11-21T13:22:52;4.68;;;2.25;;
48040;SDS011;33815;48.386;11.738;2023-11-21T13:25:26;2.92;;;2.20;;
48040;SDS011;33815;48.386;11.738;2023-11-21T13:27:53;2.90;;;2.60;;
48040;SDS011;33815;48.386;11.738;2023-11-21T13:30:22;6.82;;;3.97;;
48040;SDS011;33815;48.386;11.738;2023-11-21T13:32:51;2.20;;;1.98;;
48040;SDS011;33815;48.386;11.738;2023-11-21T13:35:17;5.70;;;1.65;;
48040;SDS011;33815;48.386;11.738;2023-11-21T13:37:49;4.32;;;2.72;;
48040;SDS011;33815;48.386;11.738;2023-11-21T13:40:18;2.95;;;2.45;;
48040;SDS011;33815;48.386;11.738;2023-11-21T13:42:47;7.22;;;2.63;;
48040;SDS011;33815;48.386;11.738;2023-11-21T13:45:13;7.70;;;3.58;;
48040;SDS011;33815;48.386;11.738;2023-11-21T13:47:38;3.42;;;2.95;;
48040;SDS011;33815;48.386;11.738;2023-11-21T13:50:05;4.68;;;2.95;;
48040;SDS011;33815;48.386;11.738;2023-11-21T13:52:39;4.20;;;3.80;;
48040;SDS011;33815;48.386;11.738;2023-11-21T13:55:04;4.10;;;3.75;;
48040;SDS011;33815;48.386;11.738;2023-11-21T13:57:31;3.75;;;3.20;;
48040;SDS011;33815;48.386;11.738;2023-11-21T13:59:57;5.93;;;3.13;;
48040;SDS011;33815;48.386;11.738;2023-11-21T14:02:23;5.15;;;3.47;;
48040;SDS011;33815;48.386;11.738;2023-11-21T14:04:57;4.30;;;3.33;;
48040;SDS011;33815;48.386;11.738;2023-11-21T14:07:25;3.58;;;2.88;;
48040;SDS011;33815;48.386;11.738;2023-11-21T14:10:11;4.63;;;3.05;;
48040;SDS011;33815;48.386;11.738;2023-11-21T14:12:39;7.72;;;2.97;;
48040;SDS011;33815;48.386;11.738;2023-11-21T14:15:06;6.50;;;3.58;;
48040;SDS011;33815;48.386;11.738;2023-11-21T14:17:34;7.35;;;3.45;;
48040;SDS011;33815;48.386;11.738;2023-11-21T14:20:00;6.72;;;3.78;;
48040;SDS011;33815;48.386;11.738;2023-11-21T14:22:30;6.88;;;3.10;;
48040;SDS011;33815;48.386;11.738;2023-11-21T14:24:56;4.93;;;2.95;;
48040;SDS011;33815;48.386;11.738;2023-11-21T14:27:23;7.63;;;3.85;;
48040;SDS011;33815;48.386;11.738;2023-11-21T14:29:49;6.32;;;2.90;;
48040;SDS011;33815;48.386;11.738;2023-11-21T14:32:15;3.53;;;2.38;;
48040;SDS011;33815;48.386;11.738;2023-11-21T14:34:41;3.10;;;2.05;;
48040;SDS011;33815;48.386;11.738;2023-11-21T14:37:10;2.40;;;2.20;;
48040;SDS011;33815;48.386;11.738;2023-11-21T14:39:38;6.50;;;2.88;;
48040;SDS011;33815;48.386;11.738;2023-11-21T14:42:09;5.85;;;3.00;;
48040;SDS011;33815;48.386;11.738;2023-11-21T14:44:34;2.70;;;2.50;;
48040;SDS011;33815;48.386;11.738;2023-11-21T14:47:03;2.90;;;2.25;;